KCVO - Corvallis Muni A, Oregon
Updated: Mon, 27-Jan-2020 3:56am PST
Few Clouds
Few Clouds
 Wind from calm
Wind: Calm
Temperature: 39°F , 4°C
Dew Point: 39°F , 4°C
Humidity: 100%
Barometer: 30.23 inHg , 1023.7 hPa
Clouds: Few Clouds
Visibility: 10 miles , 16 km
Cloud details: Few Clouds 800 ft
2020/01/27 11:56 KCVO 271156Z AUTO 00000KT 10SM FEW008 04/04 A3023 RMK AO2 SLP239 70008 T00440044 10078 20044 51007